createdAt,value
2023-03-21T00:03:23.767Z,100547.97
2023-03-21T00:08:25.249Z,100535.16
2023-03-21T00:13:26.570Z,100539.59
2023-03-21T00:18:27.884Z,100536.75
2023-03-21T00:23:29.122Z,100529.66
2023-03-21T00:28:30.359Z,100524.41
2023-03-21T00:33:31.600Z,100515.78
2023-03-21T00:38:32.839Z,100512.66
2023-03-21T00:43:34.086Z,100505.84
2023-03-21T00:48:35.715Z,100503.22
2023-03-21T00:53:36.937Z,100501.41
2023-03-21T00:58:38.189Z,100500.31
2023-03-21T01:03:42.742Z,100496.66
2023-03-21T01:08:52.274Z,100486.16
2023-03-21T01:14:21.403Z,100473.84
2023-03-21T01:19:25.135Z,100475.69
2023-03-21T01:24:27.683Z,100472.00
2023-03-21T01:29:28.900Z,100472.28
2023-03-21T01:34:30.152Z,100473.84
2023-03-21T01:39:33.668Z,100472.78
2023-03-21T01:44:34.830Z,100464.94
2023-03-21T01:49:36.040Z,100469.09
2023-03-21T01:54:38.010Z,100466.47
2023-03-21T01:59:39.208Z,100455.75
2023-03-21T02:04:40.465Z,100455.00
2023-03-21T02:09:41.879Z,100447.13
2023-03-21T02:14:43.041Z,100447.91
2023-03-21T02:19:52.764Z,100440.31
2023-03-21T02:25:00.384Z,100423.03
2023-03-21T02:30:05.548Z,100426.44
2023-03-21T02:35:06.733Z,100418.56
2023-03-21T02:40:10.907Z,100410.69
2023-03-21T02:45:12.161Z,100407.31
2023-03-21T02:50:13.356Z,100402.34
2023-03-21T02:55:15.491Z,100408.41
2023-03-21T03:00:17.890Z,100408.94
2023-03-21T03:05:21.327Z,100405.78
2023-03-21T03:10:23.175Z,100401.09
2023-03-21T03:15:28.452Z,100393.50
2023-03-21T03:20:29.655Z,100397.47
2023-03-21T03:25:42.166Z,100406.38
2023-03-21T03:30:54.280Z,100398.50
2023-03-21T03:36:06.943Z,100378.63
2023-03-21T03:41:08.766Z,100378.16
2023-03-21T03:46:12.100Z,100370.25
2023-03-21T03:51:13.383Z,100367.03
2023-03-21T03:56:14.527Z,100366.06
2023-03-21T04:01:15.910Z,100361.91
2023-03-21T04:06:17.266Z,100366.38
2023-03-21T04:11:18.439Z,100356.13
2023-03-21T04:16:19.634Z,100352.41
2023-03-21T04:21:21.929Z,100351.78
2023-03-21T04:26:23.173Z,100349.88
2023-03-21T04:31:27.156Z,100347.72
2023-03-21T04:36:33.206Z,100338.53
2023-03-21T04:41:34.446Z,100336.44
2023-03-21T04:46:36.202Z,100334.31
2023-03-21T04:51:37.401Z,100331.63
2023-03-21T04:56:38.605Z,100328.50
2023-03-21T05:01:41.058Z,100332.72
2023-03-21T05:06:45.128Z,100335.59
2023-03-21T05:11:46.299Z,100338.22
2023-03-21T05:16:55.512Z,100344.22
2023-03-21T05:21:56.792Z,100331.63
2023-03-21T05:27:02.059Z,100333.72
2023-03-21T05:32:03.236Z,100325.31
2023-03-21T05:37:04.401Z,100336.00
2023-03-21T05:42:05.781Z,100334.69
2023-03-21T05:47:07.089Z,100333.34
2023-03-21T05:52:08.224Z,100330.44
2023-03-21T05:57:09.413Z,100340.38
2023-03-21T06:02:10.955Z,100346.09
2023-03-21T06:07:12.106Z,100258.59
2023-03-21T06:12:13.295Z,100335.69
2023-03-21T06:17:14.433Z,100339.38
2023-03-21T06:22:15.773Z,100340.66
2023-03-21T06:27:17.152Z,100345.59
2023-03-21T06:32:18.343Z,100342.44
2023-03-21T06:37:19.531Z,100348.19
2023-03-21T06:42:21.011Z,100353.91
2023-03-21T06:47:22.174Z,100332.69
2023-03-21T06:52:23.447Z,100349.69
2023-03-21T06:57:24.677Z,100348.06
2023-03-21T07:02:25.912Z,100352.75
2023-03-21T07:07:29.037Z,100350.09
2023-03-21T07:12:33.938Z,100359.47
2023-03-21T07:17:35.577Z,100364.59
2023-03-21T07:22:36.799Z,100373.41
2023-03-21T07:27:40.649Z,100376.19
2023-03-21T07:32:42.102Z,100370.38
2023-03-21T07:37:43.315Z,100376.19
2023-03-21T07:42:44.558Z,100376.72
2023-03-21T07:47:45.999Z,100378.53
2023-03-21T07:52:47.227Z,100380.59
2023-03-21T07:57:48.440Z,100385.28
2023-03-21T08:02:50.309Z,100382.88
2023-03-21T08:07:51.578Z,100378.41
2023-03-21T08:12:52.765Z,100380.59
2023-03-21T08:17:53.993Z,100376.38
2023-03-21T08:22:55.307Z,100376.38
2023-03-21T08:27:56.521Z,100372.78
2023-03-21T08:33:00.688Z,100370.16
2023-03-21T08:38:02.653Z,100372.44
2023-03-21T08:43:03.874Z,100363.47
2023-03-21T08:48:05.294Z,100380.09
2023-03-21T08:53:06.451Z,100372.94
2023-03-21T08:58:07.712Z,100374.28
2023-03-21T09:03:11.592Z,100369.75
2023-03-21T09:08:15.748Z,100363.19
2023-03-21T09:13:16.967Z,100366.31
2023-03-21T09:18:22.032Z,100355.53
2023-03-21T09:23:23.349Z,100357.75
2023-03-21T09:28:24.926Z,100356.59
2023-03-21T09:33:28.642Z,100348.09
2023-03-21T09:38:30.590Z,100353.06
2023-03-21T09:43:32.366Z,100359.06
2023-03-21T09:48:34.975Z,100355.84
2023-03-21T09:53:38.906Z,100357.28
2023-03-21T09:58:40.385Z,100355.47
2023-03-21T10:03:43.789Z,100352.41
2023-03-21T10:08:45.026Z,100360.16
2023-03-21T10:13:46.228Z,100354.13
2023-03-21T10:18:47.525Z,100349.66
2023-03-21T10:23:48.748Z,100338.38
2023-03-21T10:28:53.159Z,100334.06
2023-03-21T10:33:54.882Z,100338.47
2023-03-21T10:38:56.066Z,100325.41
2023-03-21T10:43:57.266Z,100313.47
2023-03-21T10:48:58.469Z,100314.22
2023-03-21T10:53:59.771Z,100308.78
2023-03-21T10:59:00.964Z,100298.06
2023-03-21T11:04:02.169Z,100288.66
2023-03-21T11:09:04.028Z,100280.53
2023-03-21T11:14:09.175Z,100271.16
2023-03-21T11:19:10.930Z,100263.19
2023-03-21T11:24:12.138Z,100256.34
2023-03-21T11:29:13.297Z,100243.97
2023-03-21T11:34:14.647Z,100248.56
2023-03-21T11:39:15.918Z,100246.63
2023-03-21T11:44:17.063Z,100236.97
2023-03-21T11:49:18.294Z,100233.59
2023-03-21T11:54:22.310Z,100237.66
2023-03-21T11:59:23.487Z,100238.09
2023-03-21T12:04:24.812Z,100233.97
2023-03-21T12:09:26.125Z,100231.84
2023-03-21T12:14:27.345Z,100214.13
2023-03-21T12:19:28.554Z,100211.88
2023-03-21T12:24:29.729Z,100214.69
2023-03-21T12:29:30.892Z,100216.75
2023-03-21T12:34:32.422Z,100209.44
2023-03-21T12:39:33.779Z,100204.00
2023-03-21T12:44:34.996Z,100199.31
2023-03-21T12:49:36.236Z,100178.19
2023-03-21T12:54:38.640Z,100198.34
2023-03-21T12:59:39.790Z,100188.03
2023-03-21T13:04:41.497Z,100187.44
2023-03-21T13:09:42.718Z,100173.22
2023-03-21T13:14:43.909Z,100166.00
2023-03-21T13:19:45.146Z,100171.56
2023-03-21T13:24:49.371Z,100155.50
2023-03-21T13:29:50.671Z,100143.44
2023-03-21T13:34:51.927Z,100141.41
2023-03-21T13:39:53.195Z,100124.34
2023-03-21T13:44:54.346Z,100108.56
2023-03-21T13:49:55.604Z,100119.88
2023-03-21T13:54:56.841Z,100102.47
2023-03-21T13:59:58.039Z,100094.28
2023-03-21T14:05:05.295Z,100101.63
2023-03-21T14:10:07.477Z,100092.38
2023-03-21T14:15:16.361Z,100090.69
2023-03-21T14:20:18.050Z,100071.00
2023-03-21T14:25:19.274Z,100079.53
2023-03-21T14:30:20.706Z,100069.25
2023-03-21T14:35:21.869Z,100062.63
2023-03-21T14:40:23.081Z,100062.47
2023-03-21T14:45:24.321Z,100062.94
2023-03-21T14:50:25.574Z,100068.31
2023-03-21T14:55:27.294Z,100062.16
2023-03-21T15:00:28.597Z,100051.16
2023-03-21T15:05:29.764Z,100036.69
2023-03-21T15:10:31.676Z,100035.03
2023-03-21T15:15:32.947Z,100033.84
2023-03-21T15:20:34.188Z,100018.06
2023-03-21T15:25:35.374Z,100006.31
2023-03-21T15:30:36.652Z,99993.28
2023-03-21T15:35:38.733Z,99999.97
2023-03-21T15:40:41.041Z,99992.19
2023-03-21T15:45:42.515Z,99988.44
2023-03-21T15:50:43.673Z,99983.03
2023-03-21T15:55:48.278Z,99991.25
2023-03-21T16:00:52.126Z,99994.69
2023-03-21T16:05:54.706Z,99988.50
2023-03-21T16:10:56.066Z,99983.38
2023-03-21T16:15:57.245Z,99991.75
2023-03-21T16:20:59.345Z,99982.13
2023-03-21T16:26:02.975Z,99973.88
2023-03-21T16:31:04.160Z,99974.16
2023-03-21T16:36:07.495Z,99976.78
2023-03-21T16:41:08.684Z,99970.44
2023-03-21T16:46:09.871Z,99973.84
2023-03-21T16:51:11.334Z,99967.19
2023-03-21T16:56:12.575Z,99966.81
2023-03-21T17:01:14.293Z,99966.47
2023-03-21T17:06:15.618Z,99980.22
2023-03-21T17:11:17.114Z,99990.44
2023-03-21T17:16:18.353Z,99991.97
2023-03-21T17:21:19.544Z,99995.72
2023-03-21T17:26:21.107Z,99996.31
2023-03-21T17:31:22.352Z,100000.59
2023-03-21T17:36:23.596Z,100012.06
2023-03-21T17:41:24.878Z,100018.94
2023-03-21T17:46:27.166Z,100012.44
2023-03-21T17:51:30.290Z,100005.94
2023-03-21T17:56:31.585Z,100005.75
2023-03-21T18:01:35.225Z,100000.31
2023-03-21T18:06:37.446Z,100006.00
2023-03-21T18:11:39.092Z,100000.41
2023-03-21T18:16:40.261Z,100003.44
2023-03-21T18:21:44.873Z,100006.22
2023-03-21T18:26:46.428Z,99993.78
2023-03-21T18:32:04.558Z,100000.09
2023-03-21T18:37:08.009Z,100003.19
2023-03-21T18:42:16.753Z,100010.31
2023-03-21T18:47:19.058Z,100015.28
2023-03-21T18:52:20.774Z,100013.13
2023-03-21T18:57:38.668Z,100017.03
2023-03-21T19:02:45.542Z,100022.88
2023-03-21T19:07:47.978Z,100007.84
2023-03-21T19:12:49.346Z,100011.41
2023-03-21T19:23:11.911Z,100013.53
2023-03-21T19:28:13.099Z,100022.22
2023-03-21T19:33:14.308Z,100005.94
2023-03-21T19:38:15.767Z,99997.28
2023-03-21T19:43:33.565Z,99988.94
2023-03-21T19:48:36.418Z,100001.31
2023-03-21T19:53:38.289Z,99997.41
2023-03-21T19:58:39.502Z,99998.47
2023-03-21T20:03:40.777Z,99993.84
2023-03-21T20:14:03.491Z,99991.81
2023-03-21T20:19:06.211Z,99999.09
2023-03-21T20:24:07.490Z,99997.25
2023-03-21T20:29:56.319Z,100000.16
2023-03-21T20:34:30.607Z,100000.75
2023-03-21T20:39:31.886Z,99993.16
2023-03-21T20:44:56.884Z,99988.94
2023-03-21T20:49:58.425Z,99990.84
2023-03-21T20:54:59.611Z,99987.88
2023-03-21T21:00:00.742Z,99991.22
2023-03-21T21:05:24.642Z,99983.03
2023-03-21T21:10:26.233Z,99975.66
2023-03-21T21:15:28.103Z,99979.63
2023-03-21T21:20:29.368Z,99975.84
2023-03-21T21:25:30.624Z,99977.88
2023-03-21T21:30:32.457Z,99974.41
2023-03-21T21:35:33.804Z,99975.66
2023-03-21T21:40:34.993Z,99977.31
2023-03-21T21:45:36.726Z,99986.03
2023-03-21T21:50:38.238Z,99979.22
2023-03-21T21:55:39.569Z,99978.63
2023-03-21T22:00:42.671Z,99975.00
2023-03-21T22:05:47.677Z,99978.91
2023-03-21T22:10:48.842Z,99970.75
2023-03-21T22:15:49.973Z,99978.31
2023-03-21T22:20:51.095Z,99969.19
2023-03-21T22:25:52.407Z,99963.94
2023-03-21T22:30:53.557Z,99962.94
2023-03-21T22:35:54.735Z,99962.75
2023-03-21T22:40:55.944Z,99964.31
2023-03-21T22:45:57.142Z,99965.00
2023-03-21T22:50:58.405Z,99963.38
2023-03-21T22:55:59.584Z,99964.81
2023-03-21T23:01:01.039Z,99954.84
2023-03-21T23:06:02.210Z,99955.81
2023-03-21T23:11:03.335Z,99952.50
2023-03-21T23:16:04.517Z,99955.03
2023-03-21T23:21:12.964Z,99958.91
2023-03-21T23:26:14.188Z,99945.78
2023-03-21T23:31:16.627Z,99946.03
2023-03-21T23:36:17.929Z,99941.53
2023-03-21T23:41:19.217Z,99940.78
2023-03-21T23:46:20.520Z,99940.47
2023-03-21T23:51:21.753Z,99936.28
2023-03-21T23:56:22.927Z,99925.50
